Station History

Weather Underground - logo

Station Historical Data
Daily Summary for January 14, 2018 Units:  Metric    English   Both
« Previous Day
Next Day »
Daily Weekly Monthly Yearly Custom
  High: Low: Average:
Temperature: -17.8 °C 7.7 °C 9.4 °C
Dew Point: -17.8 °C 7.1 °C 8.4 °C
Humidity: Humidity % 81 % 93 %
Wind Speed: 0 km/h 0 km/h 0.8 km/h
Wind Gust: 0 km/h - -
Wind:- - WSW
Pressure: 0 hPa 1020.2 hPa -
Precipitation: 0 mm    
Historical Graphs
 
 
Tabular Data for January 14, 2018
Time Temperature Dew Point Pressure Wind Wind Speed Wind Gust Humidity Rainfall Rate (Hourly)
-17.8 °C -17.8 °C 0 hPa Calm     Humidity % 0 mm
00:04 9.2 °C 8.8 °C 1023.9 hPa Calm     97 % 0 mm
00:10 9.3 °C 8.8 °C 1023.9 hPa Calm     97 % 0 mm
00:16 9.3 °C 8.8 °C 1023.9 hPa Calm     97 % 0 mm
00:45 9.2 °C 8.7 °C 1023.6 hPa Calm     97 % 0 mm
00:59 9.1 °C 8.6 °C 1023.2 hPa Calm     97 % 0 mm
01:05 9.1 °C 8.6 °C 1023.2 hPa Calm     97 % 0 mm
01:11 9.1 °C 8.6 °C 1023.2 hPa WNW 1.9 km/h 1.9 km/h 97 % 0 mm
01:17 9.1 °C 8.6 °C 1023.2 hPa Calm     97 % 0 mm
01:29 9.1 °C 8.6 °C 1023.2 hPa Calm     97 % 0 mm
01:35 9.1 °C 8.6 °C 1023.2 hPa Calm     97 % 0 mm
01:50 9.1 °C 8.6 °C 1023.2 hPa Calm     97 % 0 mm
02:01 9.1 °C 8.6 °C 1023.2 hPa Calm     97 % 0 mm
02:09 9.1 °C 8.6 °C 1023.6 hPa Calm     97 % 0 mm
02:21 9 °C 8.6 °C 1023.2 hPa Calm     97 % 0 mm
02:31 9.1 °C 8.6 °C 1023.6 hPa Calm     97 % 0 mm
02:40 8.9 °C 8.5 °C 1023.6 hPa Calm     97 % 0 mm
02:45 8.9 °C 8.5 °C 1023.6 hPa Calm     97 % 0 mm
02:59 8.9 °C 8.5 °C 1023.9 hPa Calm     97 % 0 mm
03:06 8.9 °C 8.5 °C 1023.9 hPa Calm     97 % 0 mm
03:23 8.9 °C 8.5 °C 1023.9 hPa Calm     97 % 0 mm
03:37 8.9 °C 8.5 °C 1023.9 hPa Calm     97 % 0 mm
03:44 8.9 °C 8.4 °C 1023.9 hPa Calm     97 % 0 mm
03:55 8.9 °C 8.4 °C 1023.9 hPa Calm     97 % 0 mm
04:07 8.9 °C 8.5 °C 1023.6 hPa Calm     97 % 0 mm
04:12 8.9 °C 8.5 °C 1023.6 hPa Calm     97 % 0 mm
04:23 8.9 °C 8.4 °C 1023.6 hPa Calm     97 % 0 mm
04:30 8.9 °C 8.4 °C 1023.6 hPa Calm     97 % 0 mm
04:37 8.9 °C 8.4 °C 1023.2 hPa Calm     97 % 0 mm
04:43 8.8 °C 8.4 °C 1022.9 hPa Calm     97 % 0 mm
04:53 8.8 °C 8.4 °C 1022.9 hPa Calm     97 % 0 mm
04:59 8.8 °C 8.3 °C 1022.6 hPa Calm     97 % 0 mm
05:07 8.7 °C 8.3 °C 1022.6 hPa SE 1.9 km/h 1.9 km/h 97 % 0 mm
05:13 8.7 °C 8.3 °C 1022.6 hPa ESE 1.9 km/h 1.9 km/h 97 % 0 mm
05:22 8.6 °C 8.2 °C 1022.6 hPa ESE 1.9 km/h   97 % 0 mm
05:28 8.6 °C 8.2 °C 1022.6 hPa Calm     97 % 0 mm
05:36 8.5 °C 8.1 °C 1022.2 hPa ESE 1.9 km/h 1.9 km/h 97 % 0 mm
05:41 8.5 °C 8.1 °C 1022.2 hPa ESE 1.9 km/h 1.9 km/h 97 % 0 mm
06:04 8.4 °C 7.9 °C 1022.6 hPa ESE 1.9 km/h 1.9 km/h 97 % 0 mm
06:10 8.4 °C 7.9 °C 1022.6 hPa ESE 1.9 km/h   97 % 0 mm
06:19 8.4 °C 7.9 °C 1022.9 hPa ESE 1.9 km/h   97 % 0 mm
06:27 8.4 °C 7.9 °C 1022.6 hPa ESE 1.9 km/h   97 % 0 mm
06:33 8.4 °C 7.9 °C 1022.6 hPa Calm     97 % 0 mm
06:39 8.4 °C 7.9 °C 1022.6 hPa Calm     97 % 0 mm
06:47 8.4 °C 7.9 °C 1022.9 hPa Calm     97 % 0 mm
07:02 8.3 °C 7.9 °C 1022.9 hPa Calm     97 % 0 mm
07:09 8.3 °C 7.9 °C 1022.9 hPa Calm     97 % 0 mm
07:17 8.4 °C 7.9 °C 1022.9 hPa Calm     97 % 0 mm
07:24 8.3 °C 7.9 °C 1023.2 hPa Calm     97 % 0 mm
07:30 8.3 °C 7.9 °C 1023.2 hPa Calm     97 % 0 mm
07:47 8.4 °C 7.9 °C 1023.2 hPa Calm     97 % 0 mm
07:59 8.4 °C 7.9 °C 1023.2 hPa Calm     97 % 0 mm
08:04 8.4 °C 7.9 °C 1023.2 hPa Calm     97 % 0 mm
08:15 8.4 °C 8 °C 1023.6 hPa Calm     97 % 0 mm
08:25 8.4 °C 8 °C 1023.6 hPa Calm     97 % 0 mm
08:42 8.4 °C 8 °C 1023.6 hPa ESE 1.9 km/h 1.9 km/h 97 % 0 mm
08:54 8.5 °C 8.1 °C 1023.6 hPa Calm     97 % 0 mm
09:02 8.5 °C 8.1 °C 1023.9 hPa Calm     97 % 0 mm
09:09 8.7 °C 8.2 °C 1023.6 hPa Calm     97 % 0 mm
09:19 8.8 °C 8.6 °C 1023.6 hPa Calm     98 % 0 mm
09:31 8.8 °C 8.3 °C 1023.9 hPa NW 1.9 km/h 1.9 km/h 97 % 0 mm
09:38 8.8 °C 8.4 °C 1023.9 hPa Calm     97 % 0 mm
09:55 8.9 °C 8.5 °C 1023.9 hPa Calm     97 % 0 mm
10:04 9 °C 8.6 °C 1023.9 hPa NW 1.9 km/h 1.9 km/h 97 % 0 mm
10:10 9 °C 8.6 °C 1023.9 hPa Calm     97 % 0 mm
10:31 9.3 °C 8.8 °C 1023.9 hPa NW 5.6 km/h 5.6 km/h 97 % 0 mm
10:41 9.4 °C 8.8 °C 1023.9 hPa Calm     96 % 0 mm
10:47 9.5 °C 8.9 °C 1023.9 hPa NW 5.6 km/h 5.6 km/h 96 % 0 mm
10:53 9.5 °C 8.9 °C 1023.9 hPa NW 3.7 km/h 3.7 km/h 96 % 0 mm
11:08 9.7 °C 8.9 °C 1024.3 hPa North 5.6 km/h 5.6 km/h 95 % 0 mm
11:13 9.6 °C 8.7 °C 1024.3 hPa NNW 3.7 km/h 3.7 km/h 94 % 0 mm
11:27 9.8 °C 8.9 °C 1023.9 hPa NNW 5.6 km/h 5.6 km/h 94 % 0 mm
11:38 10 °C 8.9 °C 1023.9 hPa NNW 6.4 km/h 6.4 km/h 93 % 0 mm
11:47 10.1 °C 9 °C 1023.6 hPa NNW 4.8 km/h 4.8 km/h 93 % 0 mm
11:54 10.1 °C 9 °C 1023.6 hPa WNW 1.9 km/h 1.9 km/h 93 % 0 mm
12:02 10.2 °C 9.2 °C 1023.6 hPa WSW 3.7 km/h 3.7 km/h 93 % 0 mm
12:10 10.4 °C 9.3 °C 1023.2 hPa NW 1.9 km/h 1.9 km/h 93 % 0 mm
12:19 10.7 °C 9.4 °C 1022.9 hPa SE 1.6 km/h   92 % 0 mm
12:25 10.9 °C 9.6 °C 1022.9 hPa SE 5.6 km/h 5.6 km/h 91 % 0 mm
12:32 11 °C 9.4 °C 1022.9 hPa Calm     90 % 0 mm
12:39 11.2 °C 9.6 °C 1022.6 hPa Calm     90 % 0 mm
12:47 11.3 °C 9.8 °C 1022.6 hPa SSE 1.9 km/h 1.9 km/h 90 % 0 mm
13:05 12.2 °C 10.2 °C 1021.9 hPa SE 1.9 km/h   88 % 0 mm
13:11 12.4 °C 10.2 °C 1021.9 hPa NW 1.9 km/h 1.9 km/h 86 % 0 mm
13:18 12.5 °C 10.1 °C 1021.9 hPa West 3.7 km/h 3.7 km/h 85 % 0 mm
13:44 13.6 °C 10.8 °C 1021.6 hPa NW 1.9 km/h   83 % 0 mm
13:57 13.6 °C 10.6 °C 1021.6 hPa NW 1.9 km/h 1.9 km/h 82 % 0 mm
14:21 13.6 °C 10.4 °C 1021.6 hPa NNW 1.9 km/h 1.9 km/h 81 % 0 mm
14:27 13.6 °C 10.4 °C 1021.6 hPa NW 1.9 km/h   81 % 0 mm
14:37 13.7 °C 10.4 °C 1021.9 hPa NW 1.6 km/h   81 % 0 mm
14:44 13.6 °C 10.3 °C 1021.9 hPa NW 3.7 km/h 3.7 km/h 81 % 0 mm
14:51 13.4 °C 10.2 °C 1021.9 hPa WNW 3.7 km/h 3.7 km/h 81 % 0 mm
14:58 13.4 °C 10.2 °C 1021.9 hPa NW 3.7 km/h 3.7 km/h 81 % 0 mm
15:07 13.6 °C 10.6 °C 1021.6 hPa NW 1.9 km/h 1.9 km/h 82 % 0 mm
15:12 13.5 °C 10.3 °C 1021.6 hPa WNW 3.2 km/h 3.2 km/h 81 % 0 mm
15:30 13.3 °C 10.3 °C 1021.6 hPa WNW 1.9 km/h 1.9 km/h 82 % 0 mm
15:44 13.3 °C 10.4 °C 1021.2 hPa Calm     83 % 0 mm
15:50 13.4 °C 10.4 °C 1021.2 hPa NNW 1.9 km/h   82 % 0 mm
15:56 13.5 °C 10.5 °C 1021.2 hPa NW 1.9 km/h 1.9 km/h 82 % 0 mm
16:02 13.6 °C 10.3 °C 1021.2 hPa Calm     81 % 0 mm
16:09 13.6 °C 10.6 °C 1021.2 hPa NW 1.6 km/h 1.6 km/h 82 % 0 mm
16:17 13.7 °C 10.7 °C 1021.2 hPa Calm     82 % 0 mm
16:24 13.6 °C 10.6 °C 1021.2 hPa Calm     82 % 0 mm
16:37 13.2 °C 10.3 °C 1021.2 hPa NW 1.9 km/h   83 % 0 mm
16:57 12.2 °C 9.9 °C 1020.5 hPa Calm     86 % 0 mm
17:02 11.9 °C 9.8 °C 1020.5 hPa Calm     87 % 0 mm
17:10 11.6 °C 9.6 °C 1020.5 hPa Calm     88 % 0 mm
17:21 10.9 °C 9.2 °C 1020.5 hPa Calm     89 % 0 mm
17:27 10.7 °C 9.1 °C 1020.5 hPa Calm     90 % 0 mm
17:43 10.2 °C 9 °C 1020.2 hPa Calm     92 % 0 mm
17:52 10 °C 8.6 °C 1020.5 hPa Calm     91 % 0 mm
17:57 9.9 °C 8.7 °C 1020.5 hPa Calm     92 % 0 mm
18:03 9.8 °C 8.8 °C 1020.5 hPa Calm     93 % 0 mm
18:08 9.9 °C 9 °C 1020.5 hPa Calm     94 % 0 mm
18:14 9.8 °C 8.9 °C 1020.2 hPa Calm     94 % 0 mm
18:19 9.7 °C 8.6 °C 1020.5 hPa Calm     93 % 0 mm
18:25 9.5 °C 8.6 °C 1020.5 hPa Calm     94 % 0 mm
18:31 9.4 °C 8.5 °C 1020.9 hPa Calm     94 % 0 mm
18:37 9.3 °C 8.6 °C 1020.9 hPa Calm     95 % 0 mm
18:43 9.3 °C 8.5 °C 1020.9 hPa Calm     95 % 0 mm
19:01 8.9 °C 8.1 °C 1021.2 hPa Calm     95 % 0 mm
19:09 8.7 °C 7.9 °C 1021.6 hPa Calm     95 % 0 mm
19:15 8.6 °C 7.8 °C 1021.6 hPa Calm     95 % 0 mm
19:23 8.6 °C 7.8 °C 1021.6 hPa Calm     95 % 0 mm
19:30 8.7 °C 8.1 °C 1021.9 hPa Calm     96 % 0 mm
19:40 8.4 °C 7.8 °C 1021.9 hPa Calm     96 % 0 mm
19:46 8.3 °C 7.7 °C 1021.9 hPa Calm     96 % 0 mm
19:58 8.2 °C 7.6 °C 1021.6 hPa Calm     96 % 0 mm
20:04 8.3 °C 7.7 °C 1021.6 hPa Calm     96 % 0 mm
20:11 8.3 °C 7.7 °C 1021.6 hPa Calm     96 % 0 mm
20:26 8.1 °C 7.4 °C 1021.6 hPa Calm     96 % 0 mm
20:34 8.2 °C 7.6 °C 1021.6 hPa Calm     96 % 0 mm
20:39 8.2 °C 7.6 °C 1021.9 hPa Calm     96 % 0 mm
20:44 8.1 °C 7.4 °C 1021.9 hPa Calm     96 % 0 mm
20:50 7.7 °C 7.1 °C 1021.9 hPa Calm     96 % 0 mm
21:04 7.7 °C 7.1 °C 1021.6 hPa Calm     96 % 0 mm
21:12 7.7 °C 7.1 °C 1021.9 hPa Calm     96 % 0 mm
21:17 7.7 °C 7.1 °C 1021.6 hPa Calm     96 % 0 mm
21:22 7.8 °C 7.2 °C 1021.9 hPa Calm     96 % 0 mm
21:27 8 °C 7.6 °C 1021.6 hPa SE 1.9 km/h   97 % 0 mm
21:41 8.1 °C 7.5 °C 1021.2 hPa Calm     96 % 0 mm
21:49 8.3 °C 7.8 °C 1021.6 hPa Calm     97 % 0 mm
21:54 8.5 °C 8.1 °C 1021.2 hPa Calm     97 % 0 mm
22:03 8.6 °C 8.1 °C 1021.2 hPa Calm     97 % 0 mm
22:18 8.4 °C 7.8 °C 1021.2 hPa Calm     96 % 0 mm
22:25 8.4 °C 7.8 °C 1021.2 hPa Calm     96 % 0 mm
22:39 8.4 °C 7.8 °C 1020.9 hPa Calm     96 % 0 mm
22:49 8.4 °C 7.9 °C 1020.9 hPa Calm     97 % 0 mm
22:56 8.4 °C 7.9 °C 1021.2 hPa Calm     97 % 0 mm
23:06 8.4 °C 8 °C 1020.9 hPa Calm     97 % 0 mm
23:14 8.4 °C 7.9 °C 1020.5 hPa ESE 1.9 km/h   97 % 0 mm
23:24 8.4 °C 7.9 °C 1021.2 hPa Calm     97 % 0 mm
23:30 8.3 °C 7.9 °C 1021.6 hPa WNW 1.9 km/h 1.9 km/h 97 % 0 mm
23:38 8.2 °C 7.8 °C 1021.6 hPa Calm     97 % 0 mm
23:56 8.2 °C 7.8 °C 1021.2 hPa Calm     97 % 0 mm
Park Place, Exeter, Tulare County, California, USA
Compliments of Weather Underground - 2 mb